Time;durP1;ratioP1;P1;durP2;ratioP2;P2;SDS_P1;SDS_P2;PMS_P1;PMS_P2;Temp;Humidity;BMP_temperature;BMP_pressure;BME280_temperature;BME280_humidity;BME280_pressure;Samples;Min_cycle;Max_cycle;Signal;HPM_P1;HPM_P2
2021/11/21 00:00:13;;;;;;;;;37.00;33.25;;;;;9.92;71.52;101514.19;4921180;28;47161;-49
2021/11/21 00:02:39;;;;;;;;;41.75;35.25;;;;;9.94;72.23;101512.34;4922594;28;45296;-50
2021/11/21 00:05:05;;;;;;;;;40.25;32.75;;;;;9.95;72.42;101504.41;4923521;28;45411;-46
2021/11/21 00:07:31;;;;;;;;;32.25;23.00;;;;;10.00;71.85;101504.16;4923426;28;45541;-49
2021/11/21 00:09:57;;;;;;;;;36.50;28.75;;;;;9.97;71.37;101501.69;4922860;28;45694;-47
2021/11/21 00:12:24;;;;;;;;;36.75;30.75;;;;;9.97;71.66;101493.78;4928602;28;45489;-46
2021/11/21 00:14:50;;;;;;;;;33.50;25.50;;;;;9.96;71.93;101494.72;4933439;28;45538;-45
2021/11/21 00:17:16;;;;;;;;;34.50;29.00;;;;;9.95;71.49;101491.25;4932623;28;45357;-46
2021/11/21 00:19:42;;;;;;;;;24.50;23.75;;;;;9.94;71.59;101488.66;4929890;28;45450;-46
2021/11/21 00:22:13;;;;;;;;;36.25;28.00;;;;;9.91;71.68;101481.75;4931759;28;45524;-47
2021/11/21 00:24:40;;;;;;;;;25.00;21.00;;;;;9.86;71.19;101483.72;4931124;28;45471;-47
2021/11/21 00:27:06;;;;;;;;;33.75;26.00;;;;;9.90;71.83;101479.19;4933477;28;45595;-45
2021/11/21 00:29:32;;;;;;;;;29.00;25.00;;;;;9.93;71.38;101468.53;4931720;28;45214;-49
2021/11/21 00:31:58;;;;;;;;;20.75;19.25;;;;;9.95;71.64;101467.56;4931033;28;45207;-48
2021/11/21 00:34:23;;;;;;;;;32.50;26.75;;;;;9.98;71.66;101469.19;4930904;28;46758;-46
2021/11/21 00:36:49;;;;;;;;;32.50;21.25;;;;;10.01;71.32;101461.13;4932227;28;45285;-45
2021/11/21 00:39:14;;;;;;;;;34.50;29.50;;;;;10.02;71.50;101463.69;4931794;28;46290;-49
2021/11/21 00:41:40;;;;;;;;;31.50;26.00;;;;;10.04;71.11;101464.50;4930787;28;45411;-47
2021/11/21 00:44:05;;;;;;;;;27.75;24.75;;;;;10.06;71.36;101459.16;4928152;28;45453;-46
2021/11/21 00:46:31;;;;;;;;;29.75;20.00;;;;;10.07;70.78;101447.69;4932135;28;45363;-49
2021/11/21 00:48:56;;;;;;;;;27.75;21.75;;;;;10.08;70.81;101438.88;4931758;28;45294;-48
2021/11/21 00:51:22;;;;;;;;;26.50;22.50;;;;;10.07;71.14;101453.81;4930811;28;45299;-47
2021/11/21 00:53:52;;;;;;;;;27.75;24.75;;;;;10.05;71.27;101452.19;4930148;28;45337;-46
2021/11/21 00:56:19;;;;;;;;;35.00;29.50;;;;;10.01;70.83;101455.88;4930237;28;45576;-48
2021/11/21 00:58:44;;;;;;;;;37.00;29.25;;;;;10.00;71.01;101451.53;4929364;28;45554;-46
2021/11/21 01:01:10;;;;;;;;;27.75;24.75;;;;;9.98;71.01;101440.22;4931169;28;45497;-49
2021/11/21 01:03:35;;;;;;;;;30.25;27.25;;;;;10.00;71.06;101447.13;4931023;28;45458;-48
2021/11/21 01:06:01;;;;;;;;;40.25;29.25;;;;;9.98;70.88;101435.81;4931597;28;45346;-47
2021/11/21 01:08:28;;;;;;;;;34.00;28.50;;;;;9.96;71.12;101434.19;4930603;28;45333;-46
2021/11/21 01:11:01;;;;;;;;;39.50;25.50;;;;;9.93;71.42;101437.78;4932966;28;45360;-46
2021/11/21 01:13:28;;;;;;;;;34.00;29.75;;;;;9.92;70.91;101437.88;4930734;28;45447;-45
2021/11/21 01:15:55;;;;;;;;;33.50;26.75;;;;;9.91;71.25;101429.13;4931636;28;45252;-46
2021/11/21 01:18:20;;;;;;;;;32.25;25.25;;;;;9.91;71.42;101434.38;4930151;28;45515;-49
2021/11/21 01:20:46;;;;;;;;;41.25;32.75;;;;;9.91;71.40;101436.16;4932478;28;45437;-45
2021/11/21 01:23:15;;;;;;;;;29.00;24.75;;;;;9.90;71.55;101443.22;4932576;28;45422;-48
2021/11/21 01:25:41;;;;;;;;;39.50;30.75;;;;;9.90;71.71;101434.47;4933177;28;45547;-47
2021/11/21 01:28:07;;;;;;;;;32.50;26.50;;;;;9.86;71.98;101436.34;4932334;28;45349;-48
2021/11/21 01:30:34;;;;;;;;;36.25;29.25;;;;;9.84;72.11;101434.72;4931592;28;45427;-45
2021/11/21 01:33:01;;;;;;;;;33.00;28.75;;;;;9.82;71.51;101433.94;4931083;28;45223;-45
2021/11/21 01:35:28;;;;;;;;;42.25;30.50;;;;;9.79;71.52;101432.28;4930544;28;45536;-47
2021/11/21 01:37:54;;;;;;;;;35.75;28.75;;;;;9.77;71.99;101427.09;4932468;28;45399;-46
2021/11/21 01:40:21;;;;;;;;;37.50;29.75;;;;;9.77;72.25;101428.88;4932750;28;45393;-45
2021/11/21 01:42:49;;;;;;;;;30.50;24.75;;;;;9.79;72.08;101429.66;4931118;28;45551;-46
2021/11/21 01:45:15;;;;;;;;;33.00;27.25;;;;;9.78;71.87;101423.53;4931371;28;45491;-46
2021/11/21 01:47:43;;;;;;;;;34.50;25.75;;;;;9.76;72.29;101422.75;4930518;28;45937;-48
2021/11/21 01:50:14;;;;;;;;;35.25;26.75;;;;;9.75;72.58;101420.22;4932005;28;45434;-46
2021/11/21 01:52:39;;;;;;;;;26.50;23.00;;;;;9.72;72.60;101428.25;4932741;28;45588;-45
2021/11/21 01:55:06;;;;;;;;;36.25;27.00;;;;;9.66;71.91;101434.63;4928300;28;45474;-46
2021/11/21 01:57:32;;;;;;;;;34.00;29.75;;;;;9.62;72.24;101426.94;4930906;28;45279;-46
2021/11/21 02:00:02;;;;;;;;;25.75;25.00;;;;;9.61;72.33;101414.69;4932281;28;45474;-47
2021/11/21 02:02:28;;;;;;;;;45.50;30.50;;;;;9.61;72.48;101409.44;4931350;28;45515;-45
2021/11/21 02:04:54;;;;;;;;;34.00;28.75;;;;;9.65;72.45;101411.03;4930349;28;45352;-48
2021/11/21 02:07:19;;;;;;;;;47.50;35.25;;;;;9.65;72.87;101411.88;4929748;28;46216;-50
2021/11/21 02:09:45;;;;;;;;;33.00;27.50;;;;;9.67;72.32;101404.78;4929537;28;45250;-46
2021/11/21 02:12:11;;;;;;;;;39.50;32.75;;;;;9.69;72.41;101408.19;4931454;28;45320;-48
2021/11/21 02:14:36;;;;;;;;;30.75;20.50;;;;;9.71;72.59;101400.22;4929696;28;45551;-47
2021/11/21 02:17:02;;;;;;;;;43.50;30.75;;;;;9.72;72.19;101415.94;4929520;28;45706;-50
2021/11/21 02:19:28;;;;;;;;;30.50;26.75;;;;;9.71;72.52;101403.69;4928646;28;45414;-47
2021/11/21 02:21:53;;;;;;;;;37.00;30.00;;;;;9.70;72.46;101394.09;4930967;28;45347;-48
2021/11/21 02:24:19;;;;;;;;;34.00;29.75;;;;;9.68;72.21;101390.69;4930407;28;45448;-47
2021/11/21 02:26:44;;;;;;;;;35.50;23.75;;;;;9.64;72.45;101383.03;4933386;28;46201;-47
2021/11/21 02:29:11;;;;;;;;;28.50;27.25;;;;;9.61;72.24;101391.03;4933025;28;45433;-46
2021/11/21 02:31:38;;;;;;;;;30.25;26.00;;;;;9.58;72.72;101380.66;4932633;28;45460;-47
2021/11/21 02:34:04;;;;;;;;;34.25;22.50;;;;;9.53;72.31;101380.84;4932591;28;45490;-49
2021/11/21 02:36:30;;;;;;;;;27.75;20.00;;;;;9.49;72.40;101382.78;4934754;28;45296;-45
2021/11/21 02:38:56;;;;;;;;;34.75;24.50;;;;;9.48;72.68;101385.47;4933103;28;45331;-46
2021/11/21 02:41:21;;;;;;;;;35.25;27.25;;;;;9.47;72.65;101389.84;4933708;28;45335;-48
2021/11/21 02:43:47;;;;;;;;;30.25;22.75;;;;;9.49;72.40;101379.31;4932080;28;45560;-46
2021/11/21 02:46:15;;;;;;;;;29.25;20.75;;;;;9.49;72.71;101369.63;4916681;28;45245;-46
2021/11/21 02:48:40;;;;;;;;;34.00;29.00;;;;;9.50;72.52;101373.97;4933723;28;45407;-46
2021/11/21 02:51:09;;;;;;;;;35.75;29.50;;;;;9.51;72.68;101366.94;4934240;28;45363;-45
2021/11/21 02:53:37;;;;;;;;;32.75;24.75;;;;;9.51;72.78;101365.16;4932888;28;45554;-48
2021/11/21 02:56:07;;;;;;;;;35.50;26.00;;;;;9.50;72.56;101366.06;4887308;28;1270368;-46
2021/11/21 02:58:35;;;;;;;;;23.50;18.75;;;;;9.49;72.37;101359.13;4934335;28;45360;-48
2021/11/21 03:01:08;;;;;;;;;37.00;27.50;;;;;9.44;72.70;101357.59;4932983;28;45265;-48
2021/11/21 03:03:34;;;;;;;;;37.50;29.00;;;;;9.43;72.36;101348.84;4931650;28;45256;-46
2021/11/21 03:05:59;;;;;;;;;32.00;24.75;;;;;9.44;72.46;101347.09;4934597;28;45456;-46
2021/11/21 03:08:25;;;;;;;;;32.50;27.00;;;;;9.42;72.50;101344.53;4934882;28;45282;-47
2021/11/21 03:10:53;;;;;;;;;34.25;25.50;;;;;9.38;72.62;101342.94;4933968;28;45310;-46
2021/11/21 03:13:18;;;;;;;;;32.50;27.75;;;;;9.34;73.17;101330.88;4933198;28;45477;-45
2021/11/21 03:15:44;;;;;;;;;30.25;26.25;;;;;9.37;72.96;101327.25;4933076;28;46118;-47
2021/11/21 03:18:09;;;;;;;;;34.25;26.25;;;;;9.39;72.98;101331.50;4934866;28;45431;-45
2021/11/21 03:20:37;;;;;;;;;32.75;27.25;;;;;9.40;72.63;101324.47;4933990;28;45544;-45
2021/11/21 03:23:05;;;;;;;;;33.75;27.75;;;;;9.40;72.91;101319.19;4934064;28;45423;-46
2021/11/21 03:25:31;;;;;;;;;30.25;25.50;;;;;9.41;72.54;101328.81;4932211;28;45169;-45
2021/11/21 03:27:56;;;;;;;;;45.50;29.75;;;;;9.38;72.97;101329.78;4932315;28;45253;-45
2021/11/21 03:30:23;;;;;;;;;37.50;28.50;;;;;9.34;72.71;101322.13;4934719;28;45229;-52
2021/11/21 03:32:50;;;;;;;;;32.25;24.25;;;;;9.33;72.79;101312.53;4934389;28;45302;-48
2021/11/21 03:35:16;;;;;;;;;35.00;27.50;;;;;9.31;72.69;101311.72;4932530;28;45456;-48
2021/11/21 03:37:42;;;;;;;;;32.75;31.25;;;;;9.31;72.84;101314.34;4931944;28;45266;-48
2021/11/21 03:40:10;;;;;;;;;30.50;23.50;;;;;9.31;72.79;101312.59;4932773;28;45511;-48
2021/11/21 03:42:36;;;;;;;;;34.50;26.50;;;;;9.33;72.75;101309.91;4934849;28;45257;-46
2021/11/21 03:45:03;;;;;;;;;39.75;32.75;;;;;9.32;72.97;101303.81;4932932;28;45406;-51
2021/11/21 03:47:28;;;;;;;;;34.50;25.00;;;;;9.33;72.66;101304.66;4933494;28;45458;-51
2021/11/21 03:49:54;;;;;;;;;36.25;31.25;;;;;9.33;72.87;101310.75;4931329;28;45342;-50
2021/11/21 03:52:19;;;;;;;;;36.75;30.50;;;;;9.34;73.12;101306.34;4935739;28;45577;-48
2021/11/21 03:54:45;;;;;;;;;47.75;31.00;;;;;9.33;73.11;101308.13;4933287;28;46130;-48
2021/11/21 03:57:10;;;;;;;;;42.75;29.00;;;;;9.31;73.21;101311.72;4933855;28;45513;-47
2021/11/21 03:59:36;;;;;;;;;29.00;22.00;;;;;9.31;73.32;101314.34;4931299;28;45437;-50
2021/11/21 04:02:02;;;;;;;;;35.25;29.50;;;;;9.29;72.96;101314.44;4932603;28;45458;-49
2021/11/21 04:04:30;;;;;;;;;29.50;26.75;;;;;9.29;73.03;101310.97;4934303;28;45549;-48
2021/11/21 04:06:56;;;;;;;;;37.00;28.25;;;;;9.28;73.09;101314.50;4934015;28;45259;-46
2021/11/21 04:09:22;;;;;;;;;33.25;28.75;;;;;9.21;73.26;101308.66;4931977;28;45220;-46
2021/11/21 04:11:48;;;;;;;;;39.25;29.25;;;;;9.17;73.63;101304.50;4933032;28;45476;-47
2021/11/21 04:14:14;;;;;;;;;36.75;31.75;;;;;9.16;74.01;101298.38;4932187;28;46128;-45
2021/11/21 04:16:40;;;;;;;;;38.50;31.50;;;;;9.17;73.63;101293.97;4933998;28;45312;-48
2021/11/21 04:19:06;;;;;;;;;35.25;25.50;;;;;9.18;74.02;101293.91;4932607;28;45365;-48
2021/11/21 04:21:32;;;;;;;;;48.00;27.50;;;;;9.17;73.82;101286.94;4933124;28;45326;-47
2021/11/21 04:23:58;;;;;;;;;30.25;26.25;;;;;9.19;74.16;101286.88;4929772;28;45323;-45
2021/11/21 04:26:24;;;;;;;;;38.00;25.50;;;;;9.23;73.85;101285.78;4933590;28;45344;-48
2021/11/21 04:28:51;;;;;;;;;33.75;26.50;;;;;9.25;74.00;101291.84;4916642;28;45517;-45
2021/11/21 04:31:16;;;;;;;;;21.75;19.75;;;;;9.22;74.10;101284.09;4933630;28;45237;-47
2021/11/21 04:33:42;;;;;;;;;38.75;26.75;;;;;9.20;73.81;101278.91;4930391;28;45178;-47
2021/11/21 04:36:07;;;;;;;;;33.25;25.25;;;;;9.21;74.15;101274.50;4932042;28;45190;-48
2021/11/21 04:38:33;;;;;;;;;35.75;32.50;;;;;9.20;74.07;101270.16;4931826;28;45231;-47
2021/11/21 04:40:58;;;;;;;;;28.50;26.50;;;;;9.19;74.55;101268.47;4933865;28;45171;-49
2021/11/21 04:43:24;;;;;;;;;36.00;28.25;;;;;9.18;74.12;101275.50;4928730;28;46266;-47
2021/11/21 04:45:50;;;;;;;;;27.50;23.50;;;;;9.16;74.18;101268.59;4932432;28;45510;-47
2021/11/21 04:48:16;;;;;;;;;38.75;28.75;;;;;9.15;74.56;101264.25;4931480;28;45464;-47
2021/11/21 04:50:43;;;;;;;;;29.25;19.25;;;;;9.15;74.00;101261.63;4933444;28;45511;-48
2021/11/21 04:53:08;;;;;;;;;34.00;24.25;;;;;9.14;74.06;101255.50;4933640;28;46035;-48
2021/11/21 04:55:34;;;;;;;;;35.50;27.75;;;;;9.15;74.33;101259.84;4933121;28;45477;-47
2021/11/21 04:58:00;;;;;;;;;45.75;29.00;;;;;9.15;74.42;101254.59;4931095;28;45300;-47
2021/11/21 05:00:26;;;;;;;;;37.25;25.25;;;;;9.15;74.61;101251.97;4932434;28;45185;-50
2021/11/21 05:02:52;;;;;;;;;36.25;25.00;;;;;9.16;74.22;101250.19;4931422;28;45243;-46
2021/11/21 05:05:23;;;;;;;;;32.25;25.75;;;;;9.17;74.53;101257.16;4933779;28;45237;-47
2021/11/21 05:07:50;;;;;;;;;27.50;23.00;;;;;9.13;74.37;101248.56;4931013;28;45300;-47
2021/11/21 05:10:16;;;;;;;;;25.75;18.50;;;;;9.12;74.30;101252.09;4933083;28;45288;-48
2021/11/21 05:12:42;;;;;;;;;32.00;23.50;;;;;9.12;74.67;101244.22;4930207;28;46170;-49
2021/11/21 05:15:11;;;;;;;;;38.25;29.00;;;;;9.13;74.45;101234.56;4931546;28;45312;-50
2021/11/21 05:17:37;;;;;;;;;34.50;26.25;;;;;9.13;74.17;101234.56;4932773;28;45500;-47
2021/11/21 05:20:05;;;;;;;;;33.00;22.50;;;;;9.12;74.06;101233.72;4932318;28;45465;-46
2021/11/21 05:22:30;;;;;;;;;36.00;25.50;;;;;9.11;73.86;101225.91;4930884;28;46393;-51
2021/11/21 05:24:57;;;;;;;;;26.75;20.75;;;;;9.08;74.21;101232.13;4931433;28;45318;-46
2021/11/21 05:27:24;;;;;;;;;33.50;26.50;;;;;9.09;74.37;101230.38;4932802;28;45356;-46
2021/11/21 05:29:53;;;;;;;;;28.00;19.50;;;;;9.11;74.53;101223.28;4932487;28;45252;-47
2021/11/21 05:32:20;;;;;;;;;31.25;23.75;;;;;9.11;74.42;101224.13;4932084;28;45414;-46
2021/11/21 05:34:45;;;;;;;;;29.00;24.50;;;;;9.09;74.46;101227.75;4928376;28;45284;-47
2021/11/21 05:37:12;;;;;;;;;28.00;25.00;;;;;9.07;74.14;101221.69;4930581;28;45198;-49
2021/11/21 05:39:37;;;;;;;;;22.25;18.75;;;;;9.08;74.91;101219.00;4932805;28;45554;-48
2021/11/21 05:42:03;;;;;;;;;22.75;19.25;;;;;9.10;74.47;101221.56;4934015;28;46151;-48
2021/11/21 05:44:29;;;;;;;;;38.50;22.75;;;;;9.08;74.49;101215.50;4931855;28;45326;-48
2021/11/21 05:46:54;;;;;;;;;27.25;20.00;;;;;9.11;74.89;101215.38;4931155;28;45233;-49
2021/11/21 05:49:20;;;;;;;;;32.50;21.75;;;;;9.14;74.50;101216.09;4931002;28;45392;-50
2021/11/21 05:51:45;;;;;;;;;35.00;25.00;;;;;9.17;74.96;101228.25;4930002;28;46417;-49
2021/11/21 05:54:11;;;;;;;;;35.25;26.75;;;;;9.17;74.84;101220.38;4924565;28;45465;-46
2021/11/21 05:56:36;;;;;;;;;34.75;24.50;;;;;9.20;75.04;101217.59;4932303;28;45443;-47
2021/11/21 05:59:02;;;;;;;;;25.00;22.75;;;;;9.20;74.35;101212.34;4931337;28;45454;-48
2021/11/21 06:01:27;;;;;;;;;30.75;24.50;;;;;9.20;74.57;101207.94;4932196;28;45542;-49
2021/11/21 06:03:54;;;;;;;;;33.00;26.00;;;;;9.22;74.71;101202.59;4935489;28;45386;-48
2021/11/21 06:06:23;;;;;;;;;26.75;23.75;;;;;9.23;74.56;101202.53;4936808;28;45517;-46
2021/11/21 06:08:49;;;;;;;;;28.75;21.50;;;;;9.22;74.71;101208.72;4932688;28;45229;-47
2021/11/21 06:11:15;;;;;;;;;24.00;23.00;;;;;9.20;74.78;101202.69;4933925;28;45424;-46
2021/11/21 06:13:42;;;;;;;;;25.00;20.00;;;;;9.19;74.89;101202.75;4934160;28;45366;-47
2021/11/21 06:16:07;;;;;;;;;25.50;22.50;;;;;9.20;74.34;101193.94;4931172;28;45319;-47
2021/11/21 06:18:33;;;;;;;;;23.50;18.75;;;;;9.18;74.72;101204.53;4935057;28;45642;-47
2021/11/21 06:20:59;;;;;;;;;29.00;22.75;;;;;9.17;74.38;101201.97;4935398;28;45811;-45
2021/11/21 06:23:25;;;;;;;;;29.50;22.50;;;;;9.17;74.73;101204.59;4925687;28;45295;-49
2021/11/21 06:25:51;;;;;;;;;20.50;17.25;;;;;9.21;74.48;101198.28;4932488;28;45197;-50
2021/11/21 06:28:19;;;;;;;;;24.00;18.50;;;;;9.22;74.71;101190.31;4934543;28;45383;-48
2021/11/21 06:30:45;;;;;;;;;27.00;18.50;;;;;9.27;74.78;101184.84;4936562;28;45442;-47
2021/11/21 06:33:11;;;;;;;;;30.50;17.75;;;;;9.27;74.39;101184.84;4934216;28;45440;-49
2021/11/21 06:35:37;;;;;;;;;21.25;18.25;;;;;9.27;74.74;101187.47;4934780;28;45478;-46
2021/11/21 06:38:03;;;;;;;;;26.00;19.75;;;;;9.29;74.29;101195.28;4934082;28;45480;-45
2021/11/21 06:40:29;;;;;;;;;33.75;19.75;;;;;9.27;74.46;101208.50;4931731;28;45430;-47
2021/11/21 06:42:54;;;;;;;;;21.25;19.25;;;;;9.27;74.32;101202.41;4934432;28;45490;-48
2021/11/21 06:45:20;;;;;;;;;28.00;20.25;;;;;9.25;74.62;101202.47;4936318;28;45351;-46
2021/11/21 06:47:46;;;;;;;;;29.50;21.50;;;;;9.27;74.78;101194.50;4933809;28;45494;-47
2021/11/21 06:50:13;;;;;;;;;28.00;18.00;;;;;9.26;74.71;101204.19;4931642;28;47707;-49
2021/11/21 06:52:41;;;;;;;;;29.25;19.50;;;;;9.29;75.05;101197.91;4928116;28;45399;-49
2021/11/21 06:55:07;;;;;;;;;26.25;21.75;;;;;9.30;74.79;101197.84;4931571;28;45639;-50
2021/11/21 06:57:34;;;;;;;;;18.75;16.75;;;;;9.31;74.28;101196.06;4933737;28;45336;-49
2021/11/21 07:00:01;;;;;;;;;21.50;18.50;;;;;9.32;74.46;101192.50;4933023;28;46301;-49
2021/11/21 07:02:26;;;;;;;;;24.25;21.00;;;;;9.33;74.46;101192.44;4922901;28;45449;-51
2021/11/21 07:04:52;;;;;;;;;17.25;16.25;;;;;9.36;74.51;101183.56;4936108;28;45397;-47
2021/11/21 07:07:18;;;;;;;;;38.50;24.00;;;;;9.38;74.89;101184.34;4934361;28;45487;-49
2021/11/21 07:09:44;;;;;;;;;28.50;18.75;;;;;9.38;74.30;101184.34;4934598;28;45324;-49
2021/11/21 07:12:11;;;;;;;;;25.75;23.00;;;;;9.37;74.23;101190.53;4932919;28;45288;-49
2021/11/21 07:14:37;;;;;;;;;26.50;22.00;;;;;9.37;74.37;101188.75;4932176;28;45415;-51
2021/11/21 07:17:04;;;;;;;;;28.00;22.00;;;;;9.40;74.65;101191.25;4933006;28;45398;-49
2021/11/21 07:19:29;;;;;;;;;27.25;20.75;;;;;9.40;74.25;101186.00;4935448;28;46106;-49
2021/11/21 07:21:55;;;;;;;;;26.25;22.00;;;;;9.42;74.56;101184.13;4933190;28;45375;-47
2021/11/21 07:24:21;;;;;;;;;18.25;14.00;;;;;9.44;74.43;101187.53;4932977;28;45452;-48
2021/11/21 07:26:46;;;;;;;;;26.50;19.00;;;;;9.43;74.39;101183.19;4933020;28;45412;-48
2021/11/21 07:29:12;;;;;;;;;22.75;18.25;;;;;9.42;74.15;101181.50;4935192;28;45309;-46
2021/11/21 07:31:37;;;;;;;;;21.25;17.75;;;;;9.45;74.55;101173.44;4933400;28;45257;-47
2021/11/21 07:34:04;;;;;;;;;26.00;20.50;;;;;9.45;73.91;101178.72;4933451;28;45312;-50
2021/11/21 07:36:29;;;;;;;;;25.00;20.25;;;;;9.45;73.95;101177.88;4932451;28;45254;-47
2021/11/21 07:38:55;;;;;;;;;27.75;22.50;;;;;9.45;74.20;101175.22;4934082;28;45554;-47
2021/11/21 07:41:20;;;;;;;;;24.50;18.00;;;;;9.47;74.39;101181.25;4934004;28;45450;-47
2021/11/21 07:43:46;;;;;;;;;24.25;19.25;;;;;9.46;74.54;101171.69;4934405;28;45229;-47
2021/11/21 07:46:12;;;;;;;;;22.25;19.75;;;;;9.46;74.46;101175.16;4932507;28;45492;-49
2021/11/21 07:48:38;;;;;;;;;27.00;18.25;;;;;9.47;74.43;101176.00;4928095;28;45262;-48
2021/11/21 07:51:04;;;;;;;;;23.00;16.25;;;;;9.48;74.15;101178.59;4928416;28;45344;-45
2021/11/21 07:53:30;;;;;;;;;20.50;16.00;;;;;9.49;74.34;101168.91;4931736;28;45488;-47
2021/11/21 07:55:56;;;;;;;;;23.25;17.25;;;;;9.49;74.27;101167.13;4934615;28;45273;-48
2021/11/21 07:58:22;;;;;;;;;23.25;16.75;;;;;9.49;74.21;101182.06;4931626;28;45148;-45
2021/11/21 08:00:47;;;;;;;;;20.50;17.00;;;;;9.51;74.46;101178.44;4933920;28;45209;-50
2021/11/21 08:03:13;;;;;;;;;28.50;15.50;;;;;9.51;74.42;101172.31;4931739;28;45406;-46
2021/11/21 08:05:39;;;;;;;;;18.00;15.75;;;;;9.49;74.55;101168.91;4931581;28;45509;-46
2021/11/21 08:08:06;;;;;;;;;15.00;15.00;;;;;9.54;74.29;101164.28;4935341;28;46482;-47
2021/11/21 08:10:32;;;;;;;;;18.25;15.25;;;;;9.58;74.53;101157.09;4932749;28;45315;-46
2021/11/21 08:12:58;;;;;;;;;18.00;17.00;;;;;9.59;74.26;101164.06;4932196;28;45546;-49
2021/11/21 08:15:23;;;;;;;;;19.50;14.00;;;;;9.62;74.49;101159.50;4932184;28;45474;-47
2021/11/21 08:17:49;;;;;;;;;23.50;15.50;;;;;9.65;74.45;101159.34;4931013;28;45505;-47
2021/11/21 08:20:15;;;;;;;;;26.50;19.75;;;;;9.66;74.13;101160.22;4932849;28;45426;-46
2021/11/21 08:22:41;;;;;;;;;23.75;20.50;;;;;9.66;73.84;101155.81;4928918;28;45436;-45
2021/11/21 08:25:07;;;;;;;;;27.75;19.50;;;;;9.66;74.07;101158.44;4933556;28;45362;-49
2021/11/21 08:27:33;;;;;;;;;23.75;18.75;;;;;9.67;74.13;101167.16;4929906;28;45334;-46
2021/11/21 08:29:59;;;;;;;;;35.50;25.25;;;;;9.67;73.85;101164.53;4932529;28;45255;-45
2021/11/21 08:32:24;;;;;;;;;20.75;14.75;;;;;9.65;74.10;101167.25;4916092;28;45323;-45
2021/11/21 08:34:50;;;;;;;;;20.00;14.25;;;;;9.67;73.89;101168.03;4933400;28;45581;-45
2021/11/21 08:37:16;;;;;;;;;23.75;15.00;;;;;9.68;73.78;101168.88;4913195;28;46758;-48
2021/11/21 08:39:41;;;;;;;;;20.50;17.50;;;;;9.70;74.23;101167.00;4932208;28;45312;-49
2021/11/21 08:42:07;;;;;;;;;18.25;16.00;;;;;9.71;74.27;101160.81;4933472;28;45439;-45
2021/11/21 08:44:33;;;;;;;;;20.25;18.00;;;;;9.75;73.75;101168.50;4931983;28;45479;-47
2021/11/21 08:46:59;;;;;;;;;22.00;18.75;;;;;9.75;74.32;101167.66;4930192;28;45328;-46
2021/11/21 08:49:25;;;;;;;;;18.25;13.25;;;;;9.75;74.13;101176.38;4922159;28;45552;-45
2021/11/21 08:51:51;;;;;;;;;25.50;19.50;;;;;9.76;73.94;101174.59;4931948;28;45266;-47
2021/11/21 08:54:17;;;;;;;;;30.75;24.50;;;;;9.79;74.28;101166.56;4932148;28;45402;-46
2021/11/21 08:56:47;;;;;;;;;23.25;19.25;;;;;9.84;73.90;101163.72;4931444;28;45411;-45
2021/11/21 08:59:14;;;;;;;;;34.00;28.00;;;;;9.86;74.04;101172.38;4929406;28;46558;-46
2021/11/21 09:01:42;;;;;;;;;26.00;16.75;;;;;9.88;73.43;101171.38;4932826;28;45435;-46
2021/11/21 09:04:08;;;;;;;;;13.75;13.00;;;;;9.94;73.53;101175.47;4935066;28;45348;-47
2021/11/21 09:06:33;;;;;;;;;22.50;13.75;;;;;9.97;73.93;101165.66;4923384;28;45962;-47
2021/11/21 09:08:59;;;;;;;;;19.00;13.75;;;;;10.03;73.36;101169.75;4923204;28;45209;-46
2021/11/21 09:11:25;;;;;;;;;15.50;10.25;;;;;10.08;73.33;101149.31;4922429;28;45261;-46
2021/11/21 09:13:51;;;;;;;;;19.25;15.00;;;;;10.15;72.91;101134.94;4905812;28;45342;-47
2021/11/21 09:16:17;;;;;;;;;22.50;16.50;;;;;10.18;73.09;101141.81;4925473;28;46232;-48
2021/11/21 09:18:43;;;;;;;;;23.50;19.00;;;;;10.21;73.25;101141.66;4926497;28;45375;-48
2021/11/21 09:21:09;;;;;;;;;24.25;20.75;;;;;10.20;72.89;101139.97;4923390;28;45394;-47
2021/11/21 09:23:34;;;;;;;;;18.75;15.25;;;;;10.18;72.87;101157.59;4923244;28;45273;-49
2021/11/21 09:26:00;;;;;;;;;20.00;15.50;;;;;10.17;73.33;101159.38;4923134;28;45265;-49
2021/11/21 09:28:26;;;;;;;;;18.75;16.00;;;;;10.17;73.34;101158.53;4923301;28;45214;-46
2021/11/21 09:30:54;;;;;;;;;19.50;17.75;;;;;10.19;73.66;101162.81;4923378;28;45237;-47
2021/11/21 09:33:20;;;;;;;;;13.00;13.00;;;;;10.20;73.55;101166.28;4922591;28;45471;-47
2021/11/21 09:35:45;;;;;;;;;58.25;47.25;;;;;10.17;73.49;101177.81;4923912;28;46045;-46
2021/11/21 09:38:12;;;;;;;;;22.25;15.00;;;;;10.17;73.19;101171.69;4926184;28;45433;-51
2021/11/21 09:40:38;;;;;;;;;28.50;24.50;;;;;10.22;73.63;101167.06;4926491;28;45372;-47
2021/11/21 09:43:03;;;;;;;;;25.25;19.50;;;;;10.26;72.94;101176.53;4926313;28;45333;-46
2021/11/21 09:45:29;;;;;;;;;23.25;20.00;;;;;10.26;73.02;101172.09;4926136;28;46117;-46
2021/11/21 09:47:59;;;;;;;;;24.50;19.75;;;;;10.29;73.50;101169.34;4926029;28;45313;-48
2021/11/21 09:50:28;;;;;;;;;27.25;21.50;;;;;10.30;73.08;101164.91;4927974;28;45262;-48
2021/11/21 09:52:54;;;;;;;;;27.25;23.00;;;;;10.33;72.98;101165.59;4918441;28;45658;-46
2021/11/21 09:55:20;;;;;;;;;22.75;20.50;;;;;10.37;73.15;101163.69;4931699;28;45345;-50
2021/11/21 09:57:46;;;;;;;;;28.25;20.75;;;;;10.45;73.05;101160.66;4932675;28;45243;-45
2021/11/21 10:00:14;;;;;;;;;21.00;20.50;;;;;10.53;72.76;101161.09;4930224;28;45468;-51
2021/11/21 10:03:05;;;;;;;;;29.50;25.25;;;;;10.59;73.14;101159.00;4926356;28;45364;-47
2021/11/21 10:05:34;;;;;;;;;26.25;22.25;;;;;10.66;72.86;101164.78;4921155;28;45259;-49
2021/11/21 10:08:06;;;;;;;;;31.00;22.75;;;;;10.73;72.47;101154.75;4926057;28;45323;-46
2021/11/21 10:10:42;;;;;;;;;25.50;20.00;;;;;10.78;72.90;101148.31;4913967;28;45418;-47
2021/11/21 10:13:31;;;;;;;;;25.25;21.75;;;;;10.84;72.39;101149.78;4926175;28;45402;-47
2021/11/21 10:16:20;;;;;;;;;22.00;19.00;;;;;10.86;72.44;101153.19;4925733;28;46051;-49
2021/11/21 10:18:56;;;;;;;;;23.25;21.75;;;;;10.88;72.10;101148.66;4925770;28;45227;-46
2021/11/21 10:21:37;;;;;;;;;21.00;20.50;;;;;10.90;72.87;101146.78;4926031;28;45414;-48
2021/11/21 10:24:20;;;;;;;;;26.00;21.25;;;;;10.87;72.09;101150.47;4925769;28;45379;-52
2021/11/21 10:26:46;;;;;;;;;40.50;23.50;;;;;10.84;72.42;101152.44;4925654;28;46207;-49
2021/11/21 10:29:26;;;;;;;;;28.00;22.75;;;;;10.84;72.09;101144.53;4925792;28;45336;-50
2021/11/21 10:31:52;;;;;;;;;26.50;22.00;;;;;10.83;72.47;101143.66;4925610;28;45306;-50
2021/11/21 10:34:18;;;;;;;;;29.75;23.75;;;;;10.79;72.71;101143.91;4925608;28;45285;-47
2021/11/21 10:36:43;;;;;;;;;28.00;19.25;;;;;10.80;72.42;101141.19;4925588;28;45332;-49
2021/11/21 10:39:09;;;;;;;;;40.00;28.50;;;;;10.79;72.67;101139.47;4925498;28;45273;-48
2021/11/21 10:41:41;;;;;;;;;26.00;22.25;;;;;10.80;72.60;101141.19;4925854;28;45511;-49
2021/11/21 10:44:12;;;;;;;;;37.50;28.75;;;;;10.82;72.51;101135.81;4925562;28;45255;-50
2021/11/21 10:46:52;;;;;;;;;61.00;49.00;;;;;10.85;72.32;101138.31;4924957;28;45295;-46
2021/11/21 10:49:40;;;;;;;;;36.50;27.75;;;;;10.82;72.64;101133.19;4925462;28;45334;-50
2021/11/21 10:52:12;;;;;;;;;36.50;33.00;;;;;10.79;72.47;101131.56;4925962;28;45288;-52
2021/11/21 10:54:42;;;;;;;;;31.25;22.00;;;;;10.77;72.44;101137.88;4925061;28;45422;-50
2021/11/21 10:57:11;;;;;;;;;29.50;23.00;;;;;10.79;72.38;101130.72;4925060;28;45566;-47
2021/11/21 10:59:51;;;;;;;;;39.00;27.50;;;;;10.76;72.47;101131.75;4925481;28;45318;-47
2021/11/21 11:02:30;;;;;;;;;31.25;28.00;;;;;10.79;72.53;101136.84;4925101;28;45488;-47
2021/11/21 11:05:00;;;;;;;;;26.50;23.00;;;;;10.80;72.68;101135.91;4925335;28;45527;-49
2021/11/21 11:07:27;;;;;;;;;28.50;26.25;;;;;10.85;72.89;101128.63;4925351;28;45464;-47
2021/11/21 11:09:55;;;;;;;;;28.75;21.75;;;;;10.88;72.76;101128.44;4924884;28;45399;-46
2021/11/21 11:12:23;;;;;;;;;29.50;25.75;;;;;10.92;72.65;101123.03;4925291;28;45315;-45